createdAt,value
2023-03-07T00:01:59.025Z,3.20
2023-03-07T00:04:25.956Z,3.22
2023-03-07T00:06:56.227Z,3.19
2023-03-07T00:09:23.196Z,3.20
2023-03-07T00:11:50.665Z,3.21
2023-03-07T00:14:17.609Z,3.21
2023-03-07T00:16:44.874Z,3.21
2023-03-07T00:19:11.878Z,3.23
2023-03-07T00:21:38.903Z,3.23
2023-03-07T00:24:06.463Z,3.23
2023-03-07T00:26:34.400Z,3.23
2023-03-07T00:29:01.316Z,3.25
2023-03-07T00:31:28.305Z,3.26
2023-03-07T00:33:55.229Z,3.27
2023-03-07T00:36:23.835Z,3.27
2023-03-07T00:38:51.633Z,3.28
2023-03-07T00:41:22.334Z,3.29
2023-03-07T00:43:49.540Z,3.29
2023-03-07T00:46:19.429Z,3.29
2023-03-07T00:48:46.857Z,3.32
2023-03-07T00:51:17.902Z,3.33
2023-03-07T00:53:45.022Z,3.35
2023-03-07T00:56:18.447Z,3.35
2023-03-07T00:58:46.977Z,3.36
2023-03-07T01:01:17.611Z,3.36
2023-03-07T01:03:45.015Z,3.37
2023-03-07T01:06:18.306Z,3.38
2023-03-07T01:08:45.596Z,3.38
2023-03-07T01:11:15.111Z,3.39
2023-03-07T01:13:42.787Z,3.39
2023-03-07T01:16:23.509Z,3.40
2023-03-07T01:18:57.358Z,3.41
2023-03-07T01:21:37.699Z,3.38
2023-03-07T01:24:10.716Z,3.38
2023-03-07T01:26:37.927Z,3.37
2023-03-07T01:29:06.546Z,3.34
2023-03-07T01:31:35.822Z,3.35
2023-03-07T01:34:04.075Z,3.32
2023-03-07T01:36:35.446Z,3.30
2023-03-07T01:39:16.926Z,3.27
2023-03-07T01:41:49.205Z,3.26
2023-03-07T01:44:25.664Z,3.24
2023-03-07T01:46:57.912Z,3.23
2023-03-07T01:49:46.095Z,3.22
2023-03-07T01:52:47.515Z,3.21
2023-03-07T01:55:17.672Z,3.23
2023-03-07T01:57:49.338Z,3.21
2023-03-07T02:00:26.093Z,3.22
2023-03-07T02:03:32.169Z,3.20
2023-03-07T02:06:05.104Z,3.20
2023-03-07T02:08:35.072Z,3.21
2023-03-07T02:11:02.126Z,3.23
2023-03-07T02:13:29.309Z,3.22
2023-03-07T02:15:57.751Z,3.21
2023-03-07T02:18:30.276Z,3.22
2023-03-07T02:21:48.828Z,3.21
2023-03-07T02:24:22.869Z,3.20
2023-03-07T02:26:53.155Z,3.20
2023-03-07T02:29:20.397Z,3.19
2023-03-07T02:31:48.138Z,3.19
2023-03-07T02:34:21.558Z,3.18
2023-03-07T02:36:58.464Z,3.17
2023-03-07T02:39:30.192Z,3.18
2023-03-07T02:42:06.621Z,3.17
2023-03-07T02:44:46.625Z,3.17
2023-03-07T02:47:15.915Z,3.16
2023-03-07T02:49:42.844Z,3.13
2023-03-07T02:52:10.527Z,3.13
2023-03-07T02:54:38.069Z,3.12
2023-03-07T02:57:05.229Z,3.11
2023-03-07T02:59:32.141Z,3.12
2023-03-07T03:01:59.233Z,3.12
2023-03-07T03:04:26.361Z,3.10
2023-03-07T03:06:53.415Z,3.08
2023-03-07T03:09:21.334Z,3.06
2023-03-07T03:11:48.260Z,3.05
2023-03-07T03:14:17.427Z,3.05
2023-03-07T03:16:44.386Z,3.03
2023-03-07T03:19:11.305Z,3.02
2023-03-07T03:21:38.827Z,3.03
2023-03-07T03:24:10.403Z,3.01
2023-03-07T03:26:38.374Z,3.00
2023-03-07T03:29:06.201Z,3.00
2023-03-07T03:31:34.997Z,3.01
2023-03-07T03:34:05.107Z,2.99
2023-03-07T03:36:32.620Z,2.98
2023-03-07T03:39:03.975Z,2.98
2023-03-07T03:41:31.168Z,2.98
2023-03-07T03:43:58.155Z,2.96
2023-03-07T03:46:26.932Z,2.96
2023-03-07T03:48:55.637Z,2.97
2023-03-07T03:51:25.565Z,2.96
2023-03-07T03:53:54.704Z,2.94
2023-03-07T03:56:23.811Z,2.95
2023-03-07T03:58:53.964Z,2.94
2023-03-07T04:01:24.337Z,2.94
2023-03-07T04:03:53.219Z,2.94
2023-03-07T04:06:27.692Z,2.94
2023-03-07T04:08:56.508Z,2.94
2023-03-07T04:11:24.434Z,2.96
2023-03-07T04:13:52.764Z,2.96
2023-03-07T04:16:22.430Z,2.96
2023-03-07T04:18:52.636Z,2.95
2023-03-07T04:21:20.485Z,2.94
2023-03-07T04:23:50.136Z,2.96
2023-03-07T04:26:19.991Z,2.95
2023-03-07T04:28:49.121Z,2.95
2023-03-07T04:31:23.895Z,2.96
2023-03-07T04:33:52.680Z,2.96
2023-03-07T04:36:20.244Z,2.96
2023-03-07T04:38:49.365Z,2.95
2023-03-07T04:41:23.509Z,2.97
2023-03-07T04:43:55.130Z,2.99
2023-03-07T04:46:24.028Z,2.98
2023-03-07T04:48:50.974Z,2.98
2023-03-07T04:51:18.571Z,2.98
2023-03-07T04:53:45.718Z,2.99
2023-03-07T04:56:16.085Z,2.99
2023-03-07T04:58:44.848Z,3.01
2023-03-07T05:01:12.417Z,3.02
2023-03-07T05:03:39.606Z,3.01
2023-03-07T05:06:13.505Z,3.02
2023-03-07T05:08:41.251Z,3.04
2023-03-07T05:11:08.467Z,3.04
2023-03-07T05:13:36.020Z,3.05
2023-03-07T05:16:03.270Z,3.05
2023-03-07T05:18:31.251Z,3.06
2023-03-07T05:20:59.428Z,3.05
2023-03-07T05:23:27.171Z,3.07
2023-03-07T05:25:55.158Z,3.09
2023-03-07T05:28:22.586Z,3.10
2023-03-07T05:30:49.778Z,3.08
2023-03-07T05:33:16.898Z,3.08
2023-03-07T05:35:44.212Z,3.08
2023-03-07T05:38:12.798Z,3.09
2023-03-07T05:40:40.445Z,3.09
2023-03-07T05:43:08.694Z,3.08
2023-03-07T05:45:36.224Z,3.09
2023-03-07T05:48:03.189Z,3.10
2023-03-07T05:50:31.163Z,3.10
2023-03-07T05:52:58.883Z,3.09
2023-03-07T05:55:29.107Z,3.11
2023-03-07T05:57:56.382Z,3.11
2023-03-07T06:00:23.857Z,3.12
2023-03-07T06:02:56.322Z,3.11
2023-03-07T06:05:25.358Z,3.11
2023-03-07T06:07:52.868Z,3.10
2023-03-07T06:10:20.930Z,3.14
2023-03-07T06:12:52.946Z,3.12
2023-03-07T06:15:22.353Z,3.13
2023-03-07T06:17:54.189Z,3.13
2023-03-07T06:20:21.552Z,3.15
2023-03-07T06:22:49.403Z,3.15
2023-03-07T06:25:16.969Z,3.15
2023-03-07T06:27:44.094Z,3.16
2023-03-07T06:30:12.239Z,3.17
2023-03-07T06:32:39.268Z,3.18
2023-03-07T06:35:07.443Z,3.20
2023-03-07T06:37:34.699Z,3.22
2023-03-07T06:40:06.330Z,3.23
2023-03-07T06:42:35.688Z,3.27
2023-03-07T06:45:03.593Z,3.27
2023-03-07T06:47:30.597Z,3.28
2023-03-07T06:49:57.921Z,3.32
2023-03-07T06:52:24.876Z,3.34
2023-03-07T06:54:52.432Z,3.37
2023-03-07T06:57:19.451Z,3.39
2023-03-07T06:59:46.516Z,3.42
2023-03-07T07:02:15.070Z,3.45
2023-03-07T07:04:42.147Z,3.46
2023-03-07T07:07:09.497Z,3.49
2023-03-07T07:09:36.478Z,3.52
2023-03-07T07:12:05.847Z,3.54
2023-03-07T07:14:34.571Z,3.59
2023-03-07T07:17:01.699Z,3.61
2023-03-07T07:19:28.747Z,3.65
2023-03-07T07:21:57.229Z,3.68
2023-03-07T07:24:24.280Z,3.69
2023-03-07T07:26:52.985Z,3.71
2023-03-07T07:29:20.901Z,3.72
2023-03-07T07:31:49.803Z,3.75
2023-03-07T07:34:18.690Z,3.78
2023-03-07T07:36:46.561Z,3.80
2023-03-07T07:39:15.149Z,3.83
2023-03-07T07:41:44.437Z,3.87
2023-03-07T07:44:12.163Z,3.89
2023-03-07T07:46:59.366Z,3.91
2023-03-07T07:49:26.499Z,3.91
2023-03-07T07:51:53.704Z,3.95
2023-03-07T07:54:20.845Z,3.98
2023-03-07T07:56:49.320Z,4.01
2023-03-07T07:59:16.753Z,4.02
2023-03-07T08:01:43.701Z,4.05
2023-03-07T08:04:11.138Z,4.08
2023-03-07T08:06:38.097Z,4.09
2023-03-07T08:09:05.481Z,4.13
2023-03-07T08:11:32.560Z,4.15
2023-03-07T08:13:59.449Z,4.21
2023-03-07T08:16:26.399Z,4.21
2023-03-07T08:18:56.218Z,4.25
2023-03-07T08:21:25.227Z,4.24
2023-03-07T08:23:54.871Z,4.28
2023-03-07T08:26:22.381Z,4.30
2023-03-07T08:28:49.419Z,4.33
2023-03-07T08:31:20.369Z,4.37
2023-03-07T08:33:48.155Z,4.42
2023-03-07T08:36:15.794Z,4.46
2023-03-07T08:38:43.326Z,4.52
2023-03-07T08:41:10.407Z,4.56
2023-03-07T08:43:39.268Z,4.61
2023-03-07T08:46:06.583Z,4.66
2023-03-07T08:48:34.039Z,4.66
2023-03-07T08:51:11.104Z,4.71
2023-03-07T08:53:38.839Z,4.77
2023-03-07T08:56:10.572Z,4.83
2023-03-07T08:58:38.782Z,4.89
2023-03-07T09:01:06.918Z,4.94
2023-03-07T09:03:34.827Z,4.96
2023-03-07T09:06:03.279Z,4.99
2023-03-07T09:08:30.493Z,5.04
2023-03-07T09:11:00.957Z,5.11
2023-03-07T09:13:27.908Z,5.16
2023-03-07T09:15:54.975Z,5.20
2023-03-07T09:18:24.710Z,5.28
2023-03-07T09:20:51.658Z,5.31
2023-03-07T09:23:18.554Z,5.37
2023-03-07T09:25:45.565Z,5.40
2023-03-07T09:28:12.544Z,5.49
2023-03-07T09:30:39.517Z,5.51
2023-03-07T09:33:06.431Z,5.54
2023-03-07T09:35:33.353Z,5.57
2023-03-07T09:38:00.668Z,5.58
2023-03-07T09:40:28.949Z,5.59
2023-03-07T09:43:22.513Z,5.63
2023-03-07T09:46:28.610Z,5.63
2023-03-07T09:49:46.454Z,5.64
2023-03-07T09:52:24.595Z,5.67
2023-03-07T09:55:09.732Z,5.70
2023-03-07T09:57:57.123Z,5.72
2023-03-07T10:00:35.547Z,5.72
2023-03-07T10:03:27.203Z,5.72
2023-03-07T10:06:01.840Z,5.71
2023-03-07T10:08:33.232Z,5.74
2023-03-07T10:12:04.913Z,5.77
2023-03-07T10:15:00.755Z,5.80
2023-03-07T10:18:01.616Z,5.85
2023-03-07T10:20:57.944Z,5.89
2023-03-07T10:24:18.045Z,5.94
2023-03-07T10:27:06.560Z,5.99
2023-03-07T10:29:54.456Z,6.04
2023-03-07T10:32:33.848Z,6.10
2023-03-07T10:35:17.136Z,6.13
2023-03-07T10:38:11.536Z,6.18
2023-03-07T10:40:50.190Z,6.25
2023-03-07T10:43:30.877Z,6.30
2023-03-07T10:46:23.910Z,6.34
2023-03-07T10:49:11.785Z,6.44
2023-03-07T10:52:12.719Z,6.51
2023-03-07T10:54:39.868Z,6.62
2023-03-07T10:57:13.087Z,6.67
2023-03-07T10:59:48.298Z,6.75
2023-03-07T11:02:37.099Z,6.81
2023-03-07T11:05:24.356Z,6.86
2023-03-07T11:07:51.294Z,6.90
2023-03-07T11:10:36.550Z,6.92
2023-03-07T11:13:22.061Z,6.96
2023-03-07T11:15:49.545Z,7.00
2023-03-07T11:18:40.661Z,7.02
2023-03-07T11:21:32.433Z,7.03
2023-03-07T11:24:20.630Z,7.06
2023-03-07T11:26:55.347Z,7.03
2023-03-07T11:29:22.617Z,7.04
2023-03-07T11:32:20.759Z,7.06
2023-03-07T11:34:53.697Z,7.07
2023-03-07T11:37:49.282Z,7.08
2023-03-07T11:40:33.861Z,7.05
2023-03-07T11:43:58.509Z,7.05
2023-03-07T11:47:02.419Z,7.07
2023-03-07T11:50:16.169Z,7.07
2023-03-07T11:52:58.075Z,7.06
2023-03-07T11:55:47.367Z,7.01
2023-03-07T11:59:06.270Z,6.97
2023-03-07T12:01:56.595Z,6.91
2023-03-07T12:05:02.033Z,6.86
2023-03-07T12:08:04.252Z,6.77
2023-03-07T12:10:46.503Z,6.72
2023-03-07T12:13:58.981Z,6.67
2023-03-07T12:16:46.572Z,6.64
2023-03-07T12:19:26.250Z,6.62
2023-03-07T12:22:28.929Z,6.66
2023-03-07T12:25:07.800Z,6.73
2023-03-07T12:28:03.193Z,6.79
2023-03-07T12:30:59.558Z,6.87
2023-03-07T12:33:48.016Z,6.94
2023-03-07T12:36:39.289Z,7.00
2023-03-07T12:39:17.543Z,7.05
2023-03-07T12:42:22.531Z,7.09
2023-03-07T12:44:54.603Z,7.12
2023-03-07T12:47:52.247Z,7.09
2023-03-07T12:50:41.364Z,7.07
2023-03-07T12:53:31.047Z,7.02
2023-03-07T12:56:08.497Z,6.98
2023-03-07T12:59:12.699Z,6.98
2023-03-07T13:01:48.948Z,6.93
2023-03-07T13:04:36.265Z,6.89
2023-03-07T13:07:22.278Z,6.88
2023-03-07T13:09:52.795Z,6.87
2023-03-07T13:12:29.355Z,6.88
2023-03-07T13:15:20.924Z,6.86
2023-03-07T13:17:47.746Z,6.86
2023-03-07T13:20:41.506Z,6.85
2023-03-07T13:23:31.550Z,6.80
2023-03-07T13:26:01.238Z,6.78
2023-03-07T13:28:37.656Z,6.79
2023-03-07T13:31:39.156Z,6.75
2023-03-07T13:34:51.128Z,6.73
2023-03-07T13:37:52.807Z,6.69
2023-03-07T13:40:35.908Z,6.68
2023-03-07T13:43:27.272Z,6.67
2023-03-07T13:46:00.960Z,6.65
2023-03-07T13:48:30.774Z,6.61
2023-03-07T13:51:00.737Z,6.62
2023-03-07T13:53:36.555Z,6.59
2023-03-07T13:56:15.740Z,6.55
2023-03-07T13:59:10.443Z,6.53
2023-03-07T14:02:13.784Z,6.51
2023-03-07T14:04:54.250Z,6.47
2023-03-07T14:07:31.738Z,6.45
2023-03-07T14:10:22.675Z,6.42
2023-03-07T14:13:31.790Z,6.42
2023-03-07T14:16:32.345Z,6.41
2023-03-07T14:19:20.640Z,6.41
2023-03-07T14:22:34.404Z,6.41
2023-03-07T14:25:31.290Z,6.41
2023-03-07T14:28:02.090Z,6.41
2023-03-07T14:30:32.768Z,6.41
2023-03-07T14:33:01.523Z,6.42
2023-03-07T14:35:44.173Z,6.43
2023-03-07T14:38:23.403Z,6.44
2023-03-07T14:41:36.573Z,6.45
2023-03-07T14:44:39.539Z,6.47
2023-03-07T14:47:34.912Z,6.44
2023-03-07T14:50:23.257Z,6.47
2023-03-07T14:53:11.863Z,6.47
2023-03-07T14:55:42.976Z,6.50
2023-03-07T14:58:20.013Z,6.51
2023-03-07T15:00:56.509Z,6.51
2023-03-07T15:03:23.463Z,6.51
2023-03-07T15:05:57.252Z,6.52
2023-03-07T15:08:35.183Z,6.53
2023-03-07T15:11:37.688Z,6.54
2023-03-07T15:14:20.284Z,6.54
2023-03-07T15:16:52.509Z,6.54
2023-03-07T15:19:28.730Z,6.53
2023-03-07T15:21:59.995Z,6.55
2023-03-07T15:24:32.918Z,6.50
2023-03-07T15:27:01.304Z,6.50
2023-03-07T15:29:30.745Z,6.47
2023-03-07T15:32:04.122Z,6.45
2023-03-07T15:34:37.826Z,6.44
2023-03-07T15:37:25.776Z,6.41
2023-03-07T15:40:00.093Z,6.37
2023-03-07T15:42:28.585Z,6.36
2023-03-07T15:45:03.390Z,6.33
2023-03-07T15:47:34.008Z,6.31
2023-03-07T15:50:06.459Z,6.30
2023-03-07T15:52:39.565Z,6.31
2023-03-07T15:55:19.712Z,6.28
2023-03-07T15:58:01.843Z,6.26
2023-03-07T16:00:35.985Z,6.28
2023-03-07T16:03:28.743Z,6.28
2023-03-07T16:05:58.728Z,6.32
2023-03-07T16:08:26.056Z,6.31
2023-03-07T16:11:05.335Z,6.31
2023-03-07T16:13:39.888Z,6.30
2023-03-07T16:16:14.332Z,6.28
2023-03-07T16:18:42.580Z,6.28
2023-03-07T16:21:16.879Z,6.27
2023-03-07T16:23:44.511Z,6.25
2023-03-07T16:26:21.667Z,6.25
2023-03-07T16:28:51.031Z,6.23
2023-03-07T16:31:19.227Z,6.23
2023-03-07T16:33:47.765Z,6.21
2023-03-07T16:36:15.903Z,6.19
2023-03-07T16:38:43.234Z,6.17
2023-03-07T16:41:21.976Z,6.14
2023-03-07T16:43:57.743Z,6.13
2023-03-07T16:46:26.030Z,6.09
2023-03-07T16:48:53.000Z,6.08
2023-03-07T16:51:23.384Z,6.07
2023-03-07T16:53:51.059Z,6.05
2023-03-07T16:56:32.428Z,6.04
2023-03-07T16:59:01.346Z,6.01
2023-03-07T17:01:28.531Z,6.01
2023-03-07T17:03:56.522Z,5.99
2023-03-07T17:06:37.148Z,5.97
2023-03-07T17:09:09.205Z,5.96
2023-03-07T17:11:43.322Z,5.95
2023-03-07T17:14:12.661Z,5.94
2023-03-07T17:16:45.037Z,5.94
2023-03-07T17:19:33.297Z,5.92
2023-03-07T17:22:02.880Z,5.92
2023-03-07T17:24:30.895Z,5.91
2023-03-07T17:27:03.530Z,5.90
2023-03-07T17:29:47.978Z,5.89
2023-03-07T17:32:14.978Z,5.88
2023-03-07T17:34:42.661Z,5.89
2023-03-07T17:37:11.815Z,5.86
2023-03-07T17:39:39.484Z,5.87
2023-03-07T17:42:06.889Z,5.85
2023-03-07T17:44:34.006Z,5.85
2023-03-07T17:47:01.168Z,5.86
2023-03-07T17:49:38.003Z,5.84
2023-03-07T17:52:06.673Z,5.85
2023-03-07T17:54:33.826Z,5.83
2023-03-07T17:57:02.867Z,5.84
2023-03-07T17:59:32.516Z,5.84
2023-03-07T18:01:59.624Z,5.83
2023-03-07T18:04:28.479Z,5.84
2023-03-07T18:06:55.569Z,5.83
2023-03-07T18:09:23.265Z,5.86
2023-03-07T18:11:50.348Z,5.85
2023-03-07T18:14:17.497Z,5.85
2023-03-07T18:16:44.907Z,5.85
2023-03-07T18:19:25.284Z,5.85
2023-03-07T18:21:52.624Z,5.84
2023-03-07T18:24:26.430Z,5.84
2023-03-07T18:26:55.127Z,5.86
2023-03-07T18:29:23.329Z,5.85
2023-03-07T18:31:50.747Z,5.85
2023-03-07T18:34:17.977Z,5.84
2023-03-07T18:36:44.987Z,5.85
2023-03-07T18:39:12.007Z,5.85
2023-03-07T18:41:39.524Z,5.86
2023-03-07T18:44:06.505Z,5.86
2023-03-07T18:46:33.531Z,5.87
2023-03-07T18:49:01.064Z,5.86
2023-03-07T18:51:28.509Z,5.86
2023-03-07T18:53:59.168Z,5.85
2023-03-07T18:56:27.271Z,5.86
2023-03-07T18:58:56.810Z,5.84
2023-03-07T19:01:30.946Z,5.84
2023-03-07T19:04:02.736Z,5.82
2023-03-07T19:06:40.842Z,5.82
2023-03-07T19:09:13.520Z,5.81
2023-03-07T19:11:40.465Z,5.83
2023-03-07T19:14:07.522Z,5.81
2023-03-07T19:16:34.512Z,5.80
2023-03-07T19:19:01.635Z,5.81
2023-03-07T19:21:30.562Z,5.81
2023-03-07T19:23:59.843Z,5.81
2023-03-07T19:26:27.278Z,5.79
2023-03-07T19:28:55.357Z,5.79
2023-03-07T19:31:25.145Z,5.78
2023-03-07T19:33:52.907Z,5.78
2023-03-07T19:36:25.004Z,5.77
2023-03-07T19:38:55.395Z,5.77
2023-03-07T19:41:26.050Z,5.76
2023-03-07T19:43:55.014Z,5.74
2023-03-07T19:46:22.179Z,5.73
2023-03-07T19:48:49.428Z,5.72
2023-03-07T19:51:25.478Z,5.71
2023-03-07T19:53:56.842Z,5.68
2023-03-07T19:56:29.955Z,5.66
2023-03-07T19:58:59.427Z,5.66
2023-03-07T20:01:28.201Z,5.65
2023-03-07T20:03:55.792Z,5.65
2023-03-07T20:06:29.747Z,5.62
2023-03-07T20:08:58.480Z,5.61
2023-03-07T20:11:31.532Z,5.60
2023-03-07T20:14:01.683Z,5.59
2023-03-07T20:16:29.342Z,5.57
2023-03-07T20:19:02.746Z,5.59
2023-03-07T20:21:30.281Z,5.57
2023-03-07T20:24:00.366Z,5.56
2023-03-07T20:26:37.532Z,5.56
2023-03-07T20:29:06.779Z,5.55
2023-03-07T20:31:33.771Z,5.54
2023-03-07T20:34:00.874Z,5.55
2023-03-07T20:36:31.156Z,5.53
2023-03-07T20:39:01.563Z,5.54
2023-03-07T20:41:31.684Z,5.55
2023-03-07T20:44:03.544Z,5.54
2023-03-07T20:46:31.495Z,5.53
2023-03-07T20:49:00.674Z,5.54
2023-03-07T20:51:31.860Z,5.55
2023-03-07T20:54:14.557Z,5.55
2023-03-07T20:56:42.073Z,5.54
2023-03-07T20:59:13.258Z,5.55
2023-03-07T21:01:40.422Z,5.54
2023-03-07T21:04:15.023Z,5.53
2023-03-07T21:06:44.525Z,5.51
2023-03-07T21:09:13.614Z,5.50
2023-03-07T21:11:48.863Z,5.47
2023-03-07T21:14:18.822Z,5.46
2023-03-07T21:16:45.977Z,5.45
2023-03-07T21:19:13.039Z,5.44
2023-03-07T21:21:40.570Z,5.43
2023-03-07T21:24:08.448Z,5.43
2023-03-07T21:26:36.565Z,5.42
2023-03-07T21:29:04.503Z,5.42
2023-03-07T21:31:35.039Z,5.39
2023-03-07T21:34:08.505Z,5.38
2023-03-07T21:36:35.579Z,5.39
2023-03-07T21:39:09.685Z,5.38
2023-03-07T21:41:37.269Z,5.37
2023-03-07T21:44:04.549Z,5.36
2023-03-07T21:46:31.520Z,5.35
2023-03-07T21:48:59.512Z,5.35
2023-03-07T21:51:26.544Z,5.35
2023-03-07T21:53:53.556Z,5.33
2023-03-07T21:56:21.685Z,5.33
2023-03-07T21:58:51.793Z,5.33
2023-03-07T22:01:25.962Z,5.31
2023-03-07T22:03:55.949Z,5.29
2023-03-07T22:06:23.402Z,5.29
2023-03-07T22:08:50.460Z,5.27
2023-03-07T22:11:17.419Z,5.27
2023-03-07T22:13:44.398Z,5.26
2023-03-07T22:16:17.662Z,5.25
2023-03-07T22:18:44.733Z,5.25
2023-03-07T22:21:14.757Z,5.24
2023-03-07T22:23:42.364Z,5.25
2023-03-07T22:26:11.348Z,5.27
2023-03-07T22:28:40.462Z,5.28
2023-03-07T22:31:12.378Z,5.30
2023-03-07T22:33:41.129Z,5.30
2023-03-07T22:36:12.313Z,5.32
2023-03-07T22:38:41.544Z,5.32
2023-03-07T22:41:15.566Z,5.32
2023-03-07T22:43:42.780Z,5.31
2023-03-07T22:46:13.705Z,5.32
2023-03-07T22:48:40.873Z,5.32
2023-03-07T22:51:17.665Z,5.32
2023-03-07T22:53:45.007Z,5.32
2023-03-07T22:56:21.861Z,5.32
2023-03-07T22:58:49.419Z,5.31
2023-03-07T23:01:22.950Z,5.31
2023-03-07T23:03:52.059Z,5.31
2023-03-07T23:06:19.738Z,5.32
2023-03-07T23:08:49.568Z,5.33
2023-03-07T23:11:19.113Z,5.33
2023-03-07T23:13:46.544Z,5.31
2023-03-07T23:16:17.552Z,5.32
2023-03-07T23:18:46.487Z,5.32
2023-03-07T23:21:15.694Z,5.31
2023-03-07T23:23:42.625Z,5.32
2023-03-07T23:26:15.250Z,5.30
2023-03-07T23:28:42.299Z,5.30
2023-03-07T23:31:24.568Z,5.29
2023-03-07T23:34:02.920Z,5.29
2023-03-07T23:36:31.525Z,5.28
2023-03-07T23:38:59.199Z,5.31
2023-03-07T23:41:27.041Z,5.30
2023-03-07T23:43:56.084Z,5.31
2023-03-07T23:46:24.542Z,5.30
2023-03-07T23:48:52.461Z,5.30
2023-03-07T23:51:20.774Z,5.29
2023-03-07T23:53:48.326Z,5.29
2023-03-07T23:56:16.032Z,5.29
2023-03-07T23:58:44.040Z,5.29
